PWSweather.com
Personal Weather Stations
Station Observations
KNCCHINA3
Red Tractor Trail, China Grove, NC 28023

Red Tractor TrailChina Grove, NC 28023

Lat: 35.59751, Lon: -80.60201

Elevation: 800

Station Type: Oregon Scientific WMR 968

http://www.joesweathergarage.com

High Low Average
Temperature 41.9°F5.5°F 17.1°F-8.3°F 28.1°F-2.2°F
Dew Point 20.2°F-6.6°F 2.3°F-16.5°F 10.2°F-12.1°F
Winds 6.6 mph WNW10.6 mph WNW Calm Calm 1.6 mph 2.6 mph
Wind Gusts 8.6 mph13.8 mph -- 2.9 mph4.7 mph
Humidity 55% 41% 47%
Pressure 30.24 in1024.00 in 30.03 in1016.90 in -
Precipitation 0.00 in0.00 in - -
Hour Temp Dew Point Humidity Winds Wind Gusts Pressure Precip Precip Rate Daily Precip Total
12:01 AM 25.0°F-3.9°C 4.8°F-15.1°C 42% 4.2 mph NW6.8 kmh NW 5.8 mph9.3 kmh 30.09 in1019.0 mb 0.00 in0.0 mm 0.00 in0.0 mm 0.00 in0.0 mm
12:06 AM 25.0°F-3.9°C 4.8°F-15.1°C 42% 3.8 mph NW6.1 kmh NW 5.8 mph9.3 kmh 30.09 in1019.0 mb 0.00 in0.0 mm 0.00 in0.0 mm 0.00 in0.0 mm
12:14 AM 24.8°F-4.0°C 4.7°F-15.2°C 42% 4.1 mph WNW6.6 kmh WNW 5.0 mph8.0 kmh 30.09 in1019.0 mb 0.00 in0.0 mm 0.00 in0.0 mm 0.00 in0.0 mm
12:19 AM 24.6°F-4.1°C 4.5°F-15.3°C 42% 2.5 mph NW4.0 kmh NW 5.0 mph8.0 kmh 30.06 in1017.9 mb 0.00 in0.0 mm 0.00 in0.0 mm 0.00 in0.0 mm
12:24 AM 24.6°F-4.1°C 4.5°F-15.3°C 42% 2.9 mph NW4.7 kmh NW 4.4 mph7.1 kmh 30.06 in1017.9 mb 0.00 in0.0 mm 0.00 in0.0 mm 0.00 in0.0 mm
12:29 AM 24.4°F-4.2°C 3.7°F-15.7°C 41% 3.6 mph WNW5.8 kmh WNW 5.0 mph8.0 kmh 30.06 in1017.9 mb 0.00 in0.0 mm 0.00 in0.0 mm 0.00 in0.0 mm
12:34 AM 24.4°F-4.2°C 4.3°F-15.4°C 42% 2.6 mph NW4.2 kmh NW 5.0 mph8.0 kmh 30.06 in1017.9 mb 0.00 in0.0 mm 0.00 in0.0 mm 0.00 in0.0 mm
12:40 AM 24.4°F-4.2°C 4.3°F-15.4°C 42% 3.3 mph NW5.3 kmh NW 4.0 mph6.4 kmh 30.06 in1017.9 mb 0.00 in0.0 mm 0.00 in0.0 mm 0.00 in0.0 mm
12:46 AM 24.3°F-4.3°C 4.2°F-15.4°C 42% 2.7 mph NW4.3 kmh NW 4.0 mph6.4 kmh 30.06 in1017.9 mb 0.00 in0.0 mm 0.00 in0.0 mm 0.00 in0.0 mm
12:51 AM 24.1°F-4.4°C 3.4°F-15.9°C 41% 2.0 mph NW3.2 kmh NW 3.2 mph5.1 kmh 30.06 in1017.9 mb 0.00 in0.0 mm 0.00 in0.0 mm 0.00 in0.0 mm
12:56 AM 23.9°F-4.5°C 3.3°F-15.9°C 41% 2.0 mph NNW3.2 kmh NNW 3.2 mph5.1 kmh 30.06 in1017.9 mb 0.00 in0.0 mm 0.00 in0.0 mm 0.00 in0.0 mm
01:01 AM 23.9°F-4.5°C 3.3°F-15.9°C 41% 2.5 mph NNW4.0 kmh NNW 3.2 mph5.1 kmh 30.06 in1017.9 mb 0.00 in0.0 mm 0.00 in0.0 mm 0.00 in0.0 mm
01:07 AM 23.5°F-4.7°C 3.5°F-15.8°C 42% Calm Calm 3.2 mph5.1 kmh 30.06 in1017.9 mb 0.00 in0.0 mm 0.00 in0.0 mm 0.00 in0.0 mm
01:12 AM 23.4°F-4.8°C 3.4°F-15.9°C 42% Calm Calm 2.6 mph4.2 kmh 30.06 in1017.9 mb 0.00 in0.0 mm 0.00 in0.0 mm 0.00 in0.0 mm
01:17 AM 23.5°F-4.7°C 3.5°F-15.8°C 42% Calm Calm -- 30.03 in1016.9 mb 0.00 in0.0 mm 0.00 in0.0 mm 0.00 in0.0 mm
01:22 AM 23.2°F-4.9°C 2.6°F-16.3°C 41% Calm Calm -- 30.03 in1016.9 mb 0.00 in0.0 mm 0.00 in0.0 mm 0.00 in0.0 mm
01:27 AM 22.8°F-5.1°C 2.8°F-16.2°C 42% Calm Calm -- 30.03 in1016.9 mb 0.00 in0.0 mm 0.00 in0.0 mm 0.00 in0.0 mm
01:32 AM 22.3°F-5.4°C 3.0°F-16.1°C 43% Calm Calm -- 30.09 in1019.0 mb 0.00 in0.0 mm 0.00 in0.0 mm 0.00 in0.0 mm
01:37 AM 21.9°F-5.6°C 3.2°F-16.0°C 44% Calm Calm -- 30.09 in1019.0 mb 0.00 in0.0 mm 0.00 in0.0 mm 0.00 in0.0 mm
01:42 AM 21.7°F-5.7°C 3.0°F-16.1°C 44% Calm Calm -- 30.09 in1019.0 mb 0.00 in0.0 mm 0.00 in0.0 mm 0.00 in0.0 mm
01:48 AM 21.4°F-5.9°C 2.7°F-16.3°C 44% Calm Calm -- 30.06 in1017.9 mb 0.00 in0.0 mm 0.00 in0.0 mm 0.00 in0.0 mm
01:53 AM 21.0°F-6.1°C 2.3°F-16.5°C 44% Calm Calm -- 30.06 in1017.9 mb 0.00 in0.0 mm 0.00 in0.0 mm 0.00 in0.0 mm
01:58 AM 20.8°F-6.2°C 2.7°F-16.3°C 45% Calm Calm -- 30.06 in1017.9 mb 0.00 in0.0 mm 0.00 in0.0 mm 0.00 in0.0 mm
02:03 AM 20.7°F-6.3°C 2.6°F-16.3°C 45% Calm Calm -- 30.06 in1017.9 mb 0.00 in0.0 mm 0.00 in0.0 mm 0.00 in0.0 mm
02:08 AM 20.5°F-6.4°C 3.5°F-15.8°C 47% Calm Calm -- 30.06 in1017.9 mb 0.00 in0.0 mm 0.00 in0.0 mm 0.00 in0.0 mm
02:13 AM 20.3°F-6.5°C 3.3°F-15.9°C 47% Calm Calm -- 30.06 in1017.9 mb 0.00 in0.0 mm 0.00 in0.0 mm 0.00 in0.0 mm
02:18 AM 19.9°F-6.7°C 2.9°F-16.2°C 47% Calm Calm -- 30.06 in1017.9 mb 0.00 in0.0 mm 0.00 in0.0 mm 0.00 in0.0 mm
02:23 AM 19.9°F-6.7°C 2.9°F-16.2°C 47% Calm Calm -- 30.06 in1017.9 mb 0.00 in0.0 mm 0.00 in0.0 mm 0.00 in0.0 mm
02:28 AM 19.9°F-6.7°C 2.9°F-16.2°C 47% Calm Calm -- 30.06 in1017.9 mb 0.00 in0.0 mm 0.00 in0.0 mm 0.00 in0.0 mm
02:33 AM 19.8°F-6.8°C 2.8°F-16.2°C 47% Calm Calm -- 30.06 in1017.9 mb 0.00 in0.0 mm 0.00 in0.0 mm 0.00 in0.0 mm
02:38 AM 19.6°F-6.9°C 2.7°F-16.3°C 47% Calm Calm -- 30.06 in1017.9 mb 0.00 in0.0 mm 0.00 in0.0 mm 0.00 in0.0 mm
02:43 AM 19.6°F-6.9°C 2.7°F-16.3°C 47% Calm Calm -- 30.06 in1017.9 mb 0.00 in0.0 mm 0.00 in0.0 mm 0.00 in0.0 mm
02:49 AM 19.4°F-7.0°C 3.0°F-16.1°C 48% Calm Calm -- 30.06 in1017.9 mb 0.00 in0.0 mm 0.00 in0.0 mm 0.00 in0.0 mm
02:54 AM 19.0°F-7.2°C 2.6°F-16.3°C 48% Calm Calm -- 30.06 in1017.9 mb 0.00 in0.0 mm 0.00 in0.0 mm 0.00 in0.0 mm
02:59 AM 18.7°F-7.4°C 2.3°F-16.5°C 48% Calm Calm -- 30.06 in1017.9 mb 0.00 in0.0 mm 0.00 in0.0 mm 0.00 in0.0 mm
03:04 AM 18.7°F-7.4°C 2.3°F-16.5°C 48% Calm Calm -- 30.09 in1019.0 mb 0.00 in0.0 mm 0.00 in0.0 mm 0.00 in0.0 mm
03:10 AM 18.7°F-7.4°C 2.3°F-16.5°C 48% Calm Calm -- 30.09 in1019.0 mb 0.00 in0.0 mm 0.00 in0.0 mm 0.00 in0.0 mm
03:15 AM 18.3°F-7.6°C 2.5°F-16.4°C 50% Calm Calm -- 30.09 in1019.0 mb 0.00 in0.0 mm 0.00 in0.0 mm 0.00 in0.0 mm
03:20 AM 18.3°F-7.6°C 2.5°F-16.4°C 50% Calm Calm -- 30.09 in1019.0 mb 0.00 in0.0 mm 0.00 in0.0 mm 0.00 in0.0 mm
03:25 AM 18.0°F-7.8°C 2.7°F-16.3°C 51% Calm Calm -- 30.09 in1019.0 mb 0.00 in0.0 mm 0.00 in0.0 mm 0.00 in0.0 mm
03:30 AM 17.8°F-7.9°C 2.5°F-16.4°C 51% Calm Calm -- 30.09 in1019.0 mb 0.00 in0.0 mm 0.00 in0.0 mm 0.00 in0.0 mm
03:35 AM 17.6°F-8.0°C 2.8°F-16.2°C 52% Calm Calm -- 30.09 in1019.0 mb 0.00 in0.0 mm 0.00 in0.0 mm 0.00 in0.0 mm
03:40 AM 17.6°F-8.0°C 2.8°F-16.2°C 52% Calm Calm -- 30.09 in1019.0 mb 0.00 in0.0 mm 0.00 in0.0 mm 0.00 in0.0 mm
03:45 AM 17.4°F-8.1°C 2.6°F-16.3°C 52% Calm Calm -- 30.12 in1020.0 mb 0.00 in0.0 mm 0.00 in0.0 mm 0.00 in0.0 mm
03:51 AM 17.2°F-8.2°C 2.9°F-16.2°C 53% Calm Calm -- 30.12 in1020.0 mb 0.00 in0.0 mm 0.00 in0.0 mm 0.00 in0.0 mm
03:56 AM 17.1°F-8.3°C 3.2°F-16.0°C 54% Calm Calm -- 30.12 in1020.0 mb 0.00 in0.0 mm 0.00 in0.0 mm 0.00 in0.0 mm
04:02 AM 17.1°F-8.3°C 2.8°F-16.2°C 53% Calm Calm -- 30.12 in1020.0 mb 0.00 in0.0 mm 0.00 in0.0 mm 0.00 in0.0 mm
04:07 AM 17.1°F-8.3°C 3.2°F-16.0°C 54% Calm Calm -- 30.12 in1020.0 mb 0.00 in0.0 mm 0.00 in0.0 mm 0.00 in0.0 mm
04:13 AM 17.1°F-8.3°C 3.2°F-16.0°C 54% Calm Calm -- 30.12 in1020.0 mb 0.00 in0.0 mm 0.00 in0.0 mm 0.00 in0.0 mm
04:18 AM 17.1°F-8.3°C 3.7°F-15.7°C 55% 2.5 mph WSW4.0 kmh WSW 3.2 mph5.1 kmh 30.12 in1020.0 mb 0.00 in0.0 mm 0.00 in0.0 mm 0.00 in0.0 mm
04:24 AM 18.7°F-7.4°C 5.2°F-14.9°C 55% 5.7 mph WNW9.2 kmh WNW 6.8 mph10.9 kmh 30.12 in1020.0 mb 0.00 in0.0 mm 0.00 in0.0 mm 0.00 in0.0 mm
04:29 AM 19.9°F-6.7°C 5.9°F-14.5°C 54% 6.2 mph WNW10.0 kmh WNW 6.8 mph10.9 kmh 30.12 in1020.0 mb 0.00 in0.0 mm 0.00 in0.0 mm 0.00 in0.0 mm
04:34 AM 21.0°F-6.1°C 6.4°F-14.2°C 53% 5.9 mph NW9.5 kmh NW 7.6 mph12.2 kmh 30.15 in1021.0 mb 0.00 in0.0 mm 0.00 in0.0 mm 0.00 in0.0 mm
04:39 AM 21.9°F-5.6°C 6.8°F-14.0°C 52% 6.5 mph WNW10.5 kmh WNW 8.0 mph12.9 kmh 30.15 in1021.0 mb 0.00 in0.0 mm 0.00 in0.0 mm 0.00 in0.0 mm
04:45 AM 22.5°F-5.3°C 6.9°F-13.9°C 51% 6.6 mph WNW10.6 kmh WNW 8.6 mph13.8 kmh 30.15 in1021.0 mb 0.00 in0.0 mm 0.00 in0.0 mm 0.00 in0.0 mm
04:50 AM 22.8°F-5.1°C 6.6°F-14.1°C 50% 6.4 mph NW10.3 kmh NW 8.6 mph13.8 kmh 30.12 in1020.0 mb 0.00 in0.0 mm 0.00 in0.0 mm 0.00 in0.0 mm
04:55 AM 23.0°F-5.0°C 6.8°F-14.0°C 50% 5.6 mph WNW9.0 kmh WNW 8.6 mph13.8 kmh 30.12 in1020.0 mb 0.00 in0.0 mm 0.00 in0.0 mm 0.00 in0.0 mm
05:00 AM 23.0°F-5.0°C 6.8°F-14.0°C 50% 5.6 mph WNW9.0 kmh WNW 7.6 mph12.2 kmh 30.12 in1020.0 mb 0.00 in0.0 mm 0.00 in0.0 mm 0.00 in0.0 mm
05:05 AM 23.2°F-4.9°C 6.5°F-14.2°C 48% 6.3 mph NW10.1 kmh NW 8.6 mph13.8 kmh 30.12 in1020.0 mb 0.00 in0.0 mm 0.00 in0.0 mm 0.00 in0.0 mm
05:10 AM 23.2°F-4.9°C 6.5°F-14.2°C 48% 5.4 mph NW8.7 kmh NW 8.6 mph13.8 kmh 30.12 in1020.0 mb 0.00 in0.0 mm 0.00 in0.0 mm 0.00 in0.0 mm
05:16 PM 41.9°F5.5°C 20.2°F-6.6°C 42% Calm Calm 2.6 mph4.2 kmh 30.15 in1021.0 mb 0.00 in0.0 mm 0.00 in0.0 mm 0.45 in11.4 mm
05:21 PM 41.9°F5.5°C 20.2°F-6.6°C 42% 2.5 mph NNW4.0 kmh NNW 3.2 mph5.1 kmh 30.15 in1021.0 mb 0.00 in0.0 mm 0.00 in0.0 mm 0.45 in11.4 mm
05:26 PM 41.9°F5.5°C 20.2°F-6.6°C 42% 4.6 mph NW7.4 kmh NW 5.8 mph9.3 kmh 30.15 in1021.0 mb 0.00 in0.0 mm 0.00 in0.0 mm 0.45 in11.4 mm
05:31 PM 41.7°F5.4°C 20.0°F-6.7°C 42% 2.6 mph N4.2 kmh N 6.2 mph10.0 kmh 30.18 in1022.0 mb 0.00 in0.0 mm 0.00 in0.0 mm 0.45 in11.4 mm
05:37 PM 41.7°F5.4°C 20.0°F-6.7°C 42% 2.3 mph NNW3.7 kmh NNW 6.2 mph10.0 kmh 30.18 in1022.0 mb 0.00 in0.0 mm 0.00 in0.0 mm 0.45 in11.4 mm
05:41 PM 41.5°F5.3°C 19.8°F-6.8°C 42% 2.9 mph NW4.7 kmh NW 5.0 mph8.0 kmh 30.18 in1022.0 mb 0.00 in0.0 mm 0.00 in0.0 mm 0.45 in11.4 mm
05:47 PM 41.2°F5.1°C 19.5°F-6.9°C 42% Calm Calm 5.0 mph8.0 kmh 30.18 in1022.0 mb 0.00 in0.0 mm 0.00 in0.0 mm 0.45 in11.4 mm
05:51 PM 40.8°F4.9°C 19.2°F-7.1°C 42% Calm Calm 2.2 mph3.5 kmh 30.18 in1022.0 mb 0.00 in0.0 mm 0.00 in0.0 mm 0.45 in11.4 mm
05:57 PM 40.3°F4.6°C 18.7°F-7.4°C 42% Calm Calm 2.2 mph3.5 kmh 30.18 in1022.0 mb 0.00 in0.0 mm 0.00 in0.0 mm 0.45 in11.4 mm
06:01 PM 39.9°F4.4°C 18.4°F-7.6°C 42% Calm Calm -- 30.18 in1022.0 mb 0.00 in0.0 mm 0.00 in0.0 mm 0.45 in11.4 mm
06:07 PM 39.2°F4.0°C 17.7°F-7.9°C 42% Calm Calm -- 30.18 in1022.0 mb 0.00 in0.0 mm 0.00 in0.0 mm 0.45 in11.4 mm
06:12 PM 38.8°F3.8°C 18.0°F-7.8°C 43% Calm Calm -- 30.18 in1022.0 mb 0.00 in0.0 mm 0.00 in0.0 mm 0.45 in11.4 mm
06:17 PM 38.5°F3.6°C 17.7°F-7.9°C 43% Calm Calm -- 30.18 in1022.0 mb 0.00 in0.0 mm 0.00 in0.0 mm 0.45 in11.4 mm
06:22 PM 37.9°F3.3°C 17.2°F-8.2°C 43% Calm Calm -- 30.18 in1022.0 mb 0.00 in0.0 mm 0.00 in0.0 mm 0.45 in11.4 mm
06:29 PM 37.2°F2.9°C 16.5°F-8.6°C 43% Calm Calm -- 30.18 in1022.0 mb 0.00 in0.0 mm 0.00 in0.0 mm 0.45 in11.4 mm
06:34 PM 36.9°F2.7°C 16.3°F-8.7°C 43% Calm Calm -- 30.18 in1022.0 mb 0.00 in0.0 mm 0.00 in0.0 mm 0.45 in11.4 mm
06:39 PM 36.3°F2.4°C 15.7°F-9.1°C 43% Calm Calm -- 30.18 in1022.0 mb 0.00 in0.0 mm 0.00 in0.0 mm 0.45 in11.4 mm
06:44 PM 35.8°F2.1°C 15.3°F-9.3°C 43% Calm Calm -- 30.18 in1022.0 mb 0.00 in0.0 mm 0.00 in0.0 mm 0.45 in11.4 mm
06:50 PM 35.6°F2.0°C 15.7°F-9.1°C 44% Calm Calm -- 30.18 in1022.0 mb 0.00 in0.0 mm 0.00 in0.0 mm 0.45 in11.4 mm
06:55 PM 35.1°F1.7°C 15.2°F-9.3°C 44% Calm Calm -- 30.18 in1022.0 mb 0.00 in0.0 mm 0.00 in0.0 mm 0.45 in11.4 mm
07:00 PM 34.5°F1.4°C 14.7°F-9.6°C 44% Calm Calm -- 30.18 in1022.0 mb 0.00 in0.0 mm 0.00 in0.0 mm 0.45 in11.4 mm
07:05 PM 34.3°F1.3°C 14.5°F-9.7°C 44% Calm Calm -- 30.18 in1022.0 mb 0.00 in0.0 mm 0.00 in0.0 mm 0.45 in11.4 mm
07:10 PM 34.3°F1.3°C 14.5°F-9.7°C 44% Calm Calm -- 30.18 in1022.0 mb 0.00 in0.0 mm 0.00 in0.0 mm 0.45 in11.4 mm
07:15 PM 34.0°F1.1°C 14.2°F-9.9°C 44% 2.9 mph NNE4.7 kmh NNE 3.2 mph5.1 kmh 30.21 in1023.0 mb 0.00 in0.0 mm 0.00 in0.0 mm 0.45 in11.4 mm
07:20 PM 33.8°F1.0°C 14.6°F-9.7°C 45% Calm Calm 3.2 mph5.1 kmh 30.21 in1023.0 mb 0.00 in0.0 mm 0.00 in0.0 mm 0.45 in11.4 mm
07:25 PM 33.8°F1.0°C 14.6°F-9.7°C 45% 2.2 mph NNE3.5 kmh NNE 3.2 mph5.1 kmh 30.21 in1023.0 mb 0.00 in0.0 mm 0.00 in0.0 mm 0.45 in11.4 mm
07:30 PM 33.8°F1.0°C 14.6°F-9.7°C 45% 4.0 mph NNE6.4 kmh NNE 5.0 mph8.0 kmh 30.21 in1023.0 mb 0.00 in0.0 mm 0.00 in0.0 mm 0.45 in11.4 mm
07:35 PM 34.0°F1.1°C 14.8°F-9.6°C 45% 2.7 mph NNE4.3 kmh NNE 5.0 mph8.0 kmh 30.21 in1023.0 mb 0.00 in0.0 mm 0.00 in0.0 mm 0.45 in11.4 mm
07:40 PM 33.8°F1.0°C 14.6°F-9.7°C 45% 4.5 mph NNE7.2 kmh NNE 5.4 mph8.7 kmh 30.21 in1023.0 mb 0.00 in0.0 mm 0.00 in0.0 mm 0.45 in11.4 mm
07:45 PM 34.0°F1.1°C 15.4°F-9.2°C 46% 4.7 mph NNE7.6 kmh NNE 5.4 mph8.7 kmh 30.24 in1024.0 mb 0.00 in0.0 mm 0.00 in0.0 mm 0.45 in11.4 mm
07:50 PM 34.3°F1.3°C 15.6°F-9.1°C 46% 2.7 mph NNE4.3 kmh NNE 5.4 mph8.7 kmh 30.24 in1024.0 mb 0.00 in0.0 mm 0.00 in0.0 mm 0.45 in11.4 mm
07:55 PM 33.4°F0.8°C 14.8°F-9.6°C 46% Calm Calm 5.0 mph8.0 kmh 30.24 in1024.0 mb 0.00 in0.0 mm 0.00 in0.0 mm 0.45 in11.4 mm
08:00 PM 32.5°F0.3°C 14.0°F-10.0°C 46% Calm Calm -- 30.21 in1023.0 mb 0.00 in0.0 mm 0.00 in0.0 mm 0.45 in11.4 mm
08:05 PM 31.8°F-0.1°C 13.3°F-10.4°C 46% 2.5 mph WNW4.0 kmh WNW 2.6 mph4.2 kmh 30.21 in1023.0 mb 0.00 in0.0 mm 0.00 in0.0 mm 0.45 in11.4 mm
08:11 PM 31.1°F-0.5°C 13.2°F-10.4°C 47% 2.7 mph NW4.3 kmh NW 4.0 mph6.4 kmh 30.21 in1023.0 mb 0.00 in0.0 mm 0.00 in0.0 mm 0.45 in11.4 mm
08:16 PM 31.5°F-0.3°C 13.6°F-10.2°C 47% 2.8 mph NNW4.5 kmh NNW 4.0 mph6.4 kmh 30.24 in1024.0 mb 0.00 in0.0 mm 0.00 in0.0 mm 0.45 in11.4 mm
08:21 PM 32.0°F0.0°C 14.1°F-9.9°C 47% 2.6 mph NNE4.2 kmh NNE 5.0 mph8.0 kmh 30.24 in1024.0 mb 0.00 in0.0 mm 0.00 in0.0 mm 0.45 in11.4 mm
08:26 PM 32.0°F0.0°C 14.6°F-9.7°C 48% 2.4 mph NNE3.9 kmh NNE 5.0 mph8.0 kmh 30.24 in1024.0 mb 0.00 in0.0 mm 0.00 in0.0 mm 0.45 in11.4 mm
08:31 PM 31.5°F-0.3°C 14.2°F-9.9°C 48% Calm Calm 4.4 mph7.1 kmh 30.24 in1024.0 mb 0.00 in0.0 mm 0.00 in0.0 mm 0.45 in11.4 mm
08:36 PM 30.9°F-0.6°C 14.1°F-9.9°C 50% Calm Calm -- 30.24 in1024.0 mb 0.00 in0.0 mm 0.00 in0.0 mm 0.45 in11.4 mm
08:41 PM 30.2°F-1.0°C 14.0°F-10.0°C 51% 1.8 mph SSE2.9 kmh SSE 4.0 mph6.4 kmh 30.24 in1024.0 mb 0.00 in0.0 mm 0.00 in0.0 mm 0.45 in11.4 mm
08:46 PM 29.7°F-1.3°C 13.5°F-10.3°C 51% 1.8 mph NE2.9 kmh NE 4.0 mph6.4 kmh 30.24 in1024.0 mb 0.00 in0.0 mm 0.00 in0.0 mm 0.45 in11.4 mm
08:52 PM 29.7°F-1.3°C 13.5°F-10.3°C 51% Calm Calm 1.8 mph2.9 kmh 30.24 in1024.0 mb 0.00 in0.0 mm 0.00 in0.0 mm 0.45 in11.4 mm
08:57 PM 30.9°F-0.6°C 14.6°F-9.7°C 51% 3.6 mph NNE5.8 kmh NNE 5.0 mph8.0 kmh 30.24 in1024.0 mb 0.00 in0.0 mm 0.00 in0.0 mm 0.45 in11.4 mm
09:02 PM 31.1°F-0.5°C 14.8°F-9.6°C 51% Calm Calm 5.0 mph8.0 kmh 30.24 in1024.0 mb 0.00 in0.0 mm 0.00 in0.0 mm 0.45 in11.4 mm
09:07 PM 31.1°F-0.5°C 14.8°F-9.6°C 51% Calm Calm 4.0 mph6.4 kmh 30.24 in1024.0 mb 0.00 in0.0 mm 0.00 in0.0 mm 0.45 in11.4 mm
09:12 PM 30.6°F-0.8°C 14.4°F-9.8°C 51% Calm Calm -- 30.24 in1024.0 mb 0.00 in0.0 mm 0.00 in0.0 mm 0.45 in11.4 mm
09:17 PM 30.2°F-1.0°C 14.0°F-10.0°C 51% 3.8 mph NNE6.1 kmh NNE 5.0 mph8.0 kmh 30.21 in1023.0 mb 0.00 in0.0 mm 0.00 in0.0 mm 0.45 in11.4 mm
09:22 PM 31.1°F-0.5°C 14.8°F-9.6°C 51% 5.1 mph NE8.2 kmh NE 6.2 mph10.0 kmh 30.21 in1023.0 mb 0.00 in0.0 mm 0.00 in0.0 mm 0.45 in11.4 mm
09:27 PM 31.8°F-0.1°C 15.5°F-9.2°C 51% 2.0 mph NE3.2 kmh NE 6.2 mph10.0 kmh 30.21 in1023.0 mb 0.00 in0.0 mm 0.00 in0.0 mm 0.45 in11.4 mm
09:32 PM 31.1°F-0.5°C 15.3°F-9.3°C 52% 3.7 mph NE6.0 kmh NE 4.4 mph7.1 kmh 30.24 in1024.0 mb 0.00 in0.0 mm 0.00 in0.0 mm 0.45 in11.4 mm
09:37 PM 32.0°F0.0°C 15.7°F-9.1°C 51% 4.9 mph NE7.9 kmh NE 5.8 mph9.3 kmh 30.24 in1024.0 mb 0.00 in0.0 mm 0.00 in0.0 mm 0.45 in11.4 mm
09:42 PM 32.5°F0.3°C 16.1°F-8.8°C 51% 3.6 mph NE5.8 kmh NE 5.8 mph9.3 kmh 30.24 in1024.0 mb 0.00 in0.0 mm 0.00 in0.0 mm 0.45 in11.4 mm
09:47 PM 32.4°F0.2°C 16.0°F-8.9°C 51% 3.6 mph NE5.8 kmh NE 5.8 mph9.3 kmh 30.24 in1024.0 mb 0.00 in0.0 mm 0.00 in0.0 mm 0.45 in11.4 mm
09:52 PM 32.5°F0.3°C 15.6°F-9.1°C 50% 4.1 mph NNE6.6 kmh NNE 5.4 mph8.7 kmh 30.24 in1024.0 mb 0.00 in0.0 mm 0.00 in0.0 mm 0.45 in11.4 mm
09:57 PM 32.5°F0.3°C 15.6°F-9.1°C 50% Calm Calm 5.4 mph8.7 kmh 30.24 in1024.0 mb 0.00 in0.0 mm 0.00 in0.0 mm 0.45 in11.4 mm
10:03 PM 32.0°F0.0°C 15.1°F-9.4°C 50% 3.2 mph ENE5.1 kmh ENE 4.0 mph6.4 kmh 30.21 in1023.0 mb 0.00 in0.0 mm 0.00 in0.0 mm 0.45 in11.4 mm
10:08 PM 31.3°F-0.4°C 14.5°F-9.7°C 50% Calm Calm 4.0 mph6.4 kmh 30.21 in1023.0 mb 0.00 in0.0 mm 0.00 in0.0 mm 0.45 in11.4 mm
10:13 PM 30.4°F-0.9°C 14.2°F-9.9°C 51% Calm Calm 1.8 mph2.9 kmh 30.21 in1023.0 mb 0.00 in0.0 mm 0.00 in0.0 mm 0.45 in11.4 mm
10:18 PM 30.6°F-0.8°C 14.4°F-9.8°C 51% 2.3 mph ENE3.7 kmh ENE 3.2 mph5.1 kmh 30.24 in1024.0 mb 0.00 in0.0 mm 0.00 in0.0 mm 0.45 in11.4 mm
10:23 PM 30.7°F-0.7°C 13.9°F-10.1°C 50% 2.3 mph ENE3.7 kmh ENE 3.2 mph5.1 kmh 30.24 in1024.0 mb 0.00 in0.0 mm 0.00 in0.0 mm 0.45 in11.4 mm
10:28 PM 31.1°F-0.5°C 14.3°F-9.8°C 50% 3.2 mph NE5.1 kmh NE 4.0 mph6.4 kmh 30.24 in1024.0 mb 0.00 in0.0 mm 0.00 in0.0 mm 0.45 in11.4 mm
10:33 PM 31.1°F-0.5°C 14.3°F-9.8°C 50% 1.8 mph ENE2.9 kmh ENE 4.0 mph6.4 kmh 30.21 in1023.0 mb 0.00 in0.0 mm 0.00 in0.0 mm 0.45 in11.4 mm
10:38 PM 30.9°F-0.6°C 14.1°F-9.9°C 50% Calm Calm 3.2 mph5.1 kmh 30.21 in1023.0 mb 0.00 in0.0 mm 0.00 in0.0 mm 0.45 in11.4 mm
10:45 PM 30.6°F-0.8°C 13.9°F-10.1°C 50% Calm Calm 2.6 mph4.2 kmh 30.21 in1023.0 mb 0.00 in0.0 mm 0.00 in0.0 mm 0.45 in11.4 mm
10:50 PM 30.6°F-0.8°C 13.3°F-10.4°C 48% 2.1 mph ENE3.4 kmh ENE 4.0 mph6.4 kmh 30.21 in1023.0 mb 0.00 in0.0 mm 0.00 in0.0 mm 0.45 in11.4 mm
10:55 PM 30.6°F-0.8°C 13.3°F-10.4°C 48% 2.4 mph ENE3.9 kmh ENE 4.4 mph7.1 kmh 30.21 in1023.0 mb 0.00 in0.0 mm 0.00 in0.0 mm 0.45 in11.4 mm
11:00 PM 30.6°F-0.8°C 13.3°F-10.4°C 48% Calm Calm 4.4 mph7.1 kmh 30.24 in1024.0 mb 0.00 in0.0 mm 0.00 in0.0 mm 0.45 in11.4 mm
11:05 PM 30.4°F-0.9°C 13.1°F-10.5°C 48% 2.0 mph ESE3.2 kmh ESE 3.2 mph5.1 kmh 30.24 in1024.0 mb 0.00 in0.0 mm 0.00 in0.0 mm 0.45 in11.4 mm
11:10 PM 30.0°F-1.1°C 12.8°F-10.7°C 48% Calm Calm 3.2 mph5.1 kmh 30.24 in1024.0 mb 0.00 in0.0 mm 0.00 in0.0 mm 0.45 in11.4 mm
11:15 PM 29.5°F-1.4°C 12.8°F-10.7°C 50% Calm Calm -- 30.21 in1023.0 mb 0.00 in0.0 mm 0.00 in0.0 mm 0.45 in11.4 mm
11:20 PM 29.3°F-1.5°C 12.1°F-11.1°C 48% 3.3 mph ESE5.3 kmh ESE 4.0 mph6.4 kmh 30.21 in1023.0 mb 0.00 in0.0 mm 0.00 in0.0 mm 0.45 in11.4 mm
11:25 PM 29.7°F-1.3°C 12.5°F-10.8°C 48% 2.6 mph ESE4.2 kmh ESE 4.0 mph6.4 kmh 30.21 in1023.0 mb 0.00 in0.0 mm 0.00 in0.0 mm 0.45 in11.4 mm
11:30 PM 29.7°F-1.3°C 12.5°F-10.8°C 48% 2.8 mph ESE4.5 kmh ESE 4.0 mph6.4 kmh 30.21 in1023.0 mb 0.00 in0.0 mm 0.00 in0.0 mm 0.45 in11.4 mm
11:36 PM 29.8°F-1.2°C 12.6°F-10.8°C 48% 4.0 mph E6.4 kmh E 5.0 mph8.0 kmh 30.21 in1023.0 mb 0.00 in0.0 mm 0.00 in0.0 mm 0.45 in11.4 mm
11:41 PM 29.8°F-1.2°C 12.6°F-10.8°C 48% Calm Calm 5.0 mph8.0 kmh 30.21 in1023.0 mb 0.00 in0.0 mm 0.00 in0.0 mm 0.45 in11.4 mm
11:46 PM 29.8°F-1.2°C 12.6°F-10.8°C 48% 2.2 mph ENE3.5 kmh ENE 5.0 mph8.0 kmh 30.24 in1024.0 mb 0.00 in0.0 mm 0.00 in0.0 mm 0.45 in11.4 mm
11:51 PM 29.8°F-1.2°C 12.6°F-10.8°C 48% 2.0 mph ENE3.2 kmh ENE 2.6 mph4.2 kmh 30.24 in1024.0 mb 0.00 in0.0 mm 0.00 in0.0 mm 0.45 in11.4 mm
11:56 PM 29.8°F-1.2°C 12.1°F-11.1°C 47% Calm Calm 2.6 mph4.2 kmh 30.24 in1024.0 mb 0.00 in0.0 mm 0.00 in0.0 mm 0.45 in11.4 mm